Portada
METAR-TAF:

METAR-TAF

Aeroports :

Bismarck, Dakota del Nord, Estats Units d'Amèrica

latitud: 46-46-57N, longitud: 100-45-26W, altitud: 511 m

Observació

L'informe es va fer fa 52 minuts, a les 00:52 UTC
Vent 4 kt del Sud/Sud-Est
Temperatura -20°C
Humitat 64%
Pressió 1038 hPa
Visibilitat: 16.1 km
Cel clar

METAR: KBIS 200052Z 15004KT 10SM CLR M20/M25 A3064 RMK AO2 SLP432 T12001250

Hora: 19:44 (01:44 UTC)

Pronòstic

L'informe es va fer fa 2 hores i 3 minuts, a les 23:41 UTC
Pronòstic vàlid del 20 a les 00 UTC al 20 a les 24 UTC
Vent 7 kt del Sud/Sud-Oest
Visibilitat: 10 km
Cel clar

TAF: KBIS 192341Z 2000/2024 20007KT P6SM SKC

Observacions i pronòstics meteorològics de més de 4000 aeroports (METAR i TAF).

Les estacions disponibles són els punts grocs i vermells al mapa.

Posi el ratolí al punt desitjat per veure el nom de l'estació.

Feu clic per veure les observacions i els pronòstics meteorològics.

Per canviar el mapa: feu clic els botons verds amb una creu de color negre per apropar; al botó verd amb un guió per allunyar la imatge; o en les fletxes verdes per a mapes adjacents.


METAR-TAF: